Pagina principale
METAR-TAF:

METAR-TAF

Aeroporti :

Carrollton, Georgia, Stati Uniti

latitudine: 33-37-54N, longitudine: 085-09-08W, altezza: 354 m

Osservazione

Il bollettino è stato emesso 36 minuti fa, alle 22:35 UTC
Vento 7 kt da nord/nord-ovest
Temperature 10°C
Umidità 82%
Pressione 1021 hPa
Visibilità: 16.1 km
Cielo coperto ad un'altezza di 2000 ft

METAR: KCTJ 162235Z AUTO 34007KT 10SM OVC020 10/07 A3016 RMK AO2 T00990065

Ora: 18:11 (23:11 UTC)


TAF: mancante

Osservazioni e previsioni meteorologiche di più di 4000 aeroporti (messaggi METAR e TAF).

Le stazioni disponibili sono rappresentate dai dischi gialli e rossi sulla carta.

Puntare il mouse per vedere il nome della stazione.

Clicca sopra per visualizzare le osservazioni e previsioni meteorologiche.

Per cambiare la mappa : fare clic sui pulsanti verdi con una croce nera per ingrandire, il pulsante verde con un trattino per diminuire, o sulla freccia verde per le mappe adiacenti.


METAR-TAF: